createdAt,value
2022-11-16T13:14:00.998Z,11.47
2022-11-16T13:16:29.468Z,11.31
2022-11-16T13:18:58.617Z,11.31
2022-11-16T13:21:35.868Z,11.18
2022-11-16T13:24:27.495Z,11.21
2022-11-16T13:27:18.808Z,11.07
2022-11-16T13:29:59.431Z,10.91
2022-11-16T13:32:32.494Z,10.97
2022-11-16T13:35:01.751Z,10.97
2022-11-16T13:37:38.444Z,10.98
2022-11-16T13:40:05.729Z,11.08
2022-11-16T13:42:43.843Z,11.04
2022-11-16T13:45:22.269Z,11.09
2022-11-16T13:47:55.091Z,11.14
2022-11-16T13:50:33.034Z,11.14
2022-11-16T13:54:25.056Z,10.94
2022-11-16T13:56:18.091Z,10.98
2022-11-16T13:58:52.051Z,10.98
2022-11-16T14:01:19.448Z,10.88
2022-11-16T14:03:49.112Z,10.94
2022-11-16T14:06:19.234Z,10.96
2022-11-16T14:08:50.790Z,10.81
2022-11-16T14:11:39.128Z,10.89
2022-11-16T14:14:10.998Z,10.74
2022-11-16T14:16:51.642Z,10.81
2022-11-16T14:19:44.678Z,10.95
2022-11-16T14:22:36.296Z,10.63
2022-11-16T14:25:14.698Z,10.66
2022-11-16T14:27:54.385Z,10.54
2022-11-16T14:30:30.475Z,10.45
2022-11-16T14:32:58.946Z,10.43
2022-11-16T14:35:31.882Z,10.30
2022-11-16T14:38:05.189Z,10.19
2022-11-16T14:40:56.255Z,10.28
2022-11-16T14:43:41.925Z,10.27
2022-11-16T14:46:36.237Z,10.14
2022-11-16T14:49:04.014Z,9.97
2022-11-16T14:51:43.146Z,9.83
2022-11-16T14:54:33.078Z,9.99
2022-11-16T14:57:02.903Z,9.95
2022-11-16T14:59:31.482Z,9.97
2022-11-16T15:02:05.253Z,9.74
2022-11-16T15:04:32.815Z,9.88
2022-11-16T15:07:04.577Z,9.78
2022-11-16T15:09:41.975Z,9.75
2022-11-16T15:12:36.803Z,9.77
2022-11-16T15:15:08.268Z,9.68
2022-11-16T15:17:35.662Z,9.72
2022-11-16T15:20:24.912Z,9.62
2022-11-16T15:22:53.856Z,9.63
2022-11-16T15:25:24.574Z,9.60
2022-11-16T15:27:52.005Z,9.54
2022-11-16T15:30:21.707Z,9.42
2022-11-16T15:32:50.688Z,9.46
2022-11-16T15:35:34.091Z,9.21
2022-11-16T15:38:17.958Z,9.35
2022-11-16T15:40:48.183Z,9.19
2022-11-16T15:43:15.822Z,9.20
2022-11-16T15:45:44.127Z,9.03
2022-11-16T15:48:22.301Z,9.24
2022-11-16T15:50:57.909Z,9.15
2022-11-16T15:53:34.199Z,9.23
2022-11-16T15:56:02.627Z,9.21
2022-11-16T15:58:36.549Z,9.13
2022-11-16T16:01:04.063Z,9.16
2022-11-16T16:03:35.106Z,9.12
2022-11-16T16:06:03.027Z,9.03
2022-11-16T16:08:38.223Z,9.12
2022-11-16T16:11:13.053Z,9.09
2022-11-16T16:13:42.072Z,9.20
2022-11-16T16:16:29.845Z,9.14
2022-11-16T16:19:09.295Z,9.24
2022-11-16T16:21:46.294Z,9.29
2022-11-16T16:24:35.141Z,9.08
2022-11-16T16:27:02.190Z,9.06
2022-11-16T16:29:29.268Z,9.12
2022-11-16T16:31:56.521Z,8.99
2022-11-16T16:34:23.790Z,9.03
2022-11-16T16:36:50.952Z,9.09
2022-11-16T16:39:17.888Z,9.04
2022-11-16T16:41:45.136Z,9.03
2022-11-16T16:44:16.118Z,8.95
2022-11-16T16:46:43.191Z,8.84
2022-11-16T16:49:10.083Z,8.97
2022-11-16T16:51:37.470Z,9.04
2022-11-16T16:54:04.522Z,8.95
2022-11-16T16:56:31.441Z,8.89
2022-11-16T16:58:59.495Z,8.96
2022-11-16T17:01:26.895Z,8.79
2022-11-16T17:03:53.821Z,8.81
2022-11-16T17:06:21.534Z,8.78
2022-11-16T17:08:48.990Z,8.82
2022-11-16T17:11:18.489Z,8.79
2022-11-16T17:13:45.609Z,8.79
2022-11-16T17:16:13.072Z,8.90
2022-11-16T17:18:40.220Z,8.83
2022-11-16T17:21:11.807Z,9.08
2022-11-16T17:23:39.098Z,8.74
2022-11-16T17:26:08.615Z,8.78
2022-11-16T17:28:35.812Z,8.70
2022-11-16T17:31:04.649Z,8.87
2022-11-16T17:33:38.874Z,8.92
2022-11-16T17:36:07.716Z,8.91
2022-11-16T17:38:35.717Z,8.78
2022-11-16T17:41:09.194Z,8.85
2022-11-16T17:43:37.007Z,8.76
2022-11-16T17:46:18.961Z,8.91
2022-11-16T17:48:47.682Z,8.98
2022-11-16T17:51:17.775Z,9.00
2022-11-16T17:53:45.307Z,8.94
2022-11-16T17:56:15.313Z,8.85
2022-11-16T17:58:46.948Z,8.80
2022-11-16T18:01:15.052Z,9.07
2022-11-16T18:03:42.729Z,8.96
2022-11-16T18:06:15.389Z,8.85
2022-11-16T18:08:43.951Z,8.98
2022-11-16T18:11:15.247Z,8.83
2022-11-16T18:13:44.163Z,8.51
2022-11-16T18:16:17.663Z,8.52
2022-11-16T18:18:46.610Z,8.75
2022-11-16T18:21:20.336Z,8.53
2022-11-16T18:23:48.573Z,8.35
2022-11-16T18:26:19.339Z,8.53
2022-11-16T18:28:47.771Z,8.63
2022-11-16T18:31:19.348Z,8.58
2022-11-16T18:33:46.802Z,8.65
2022-11-16T18:36:14.204Z,8.51
2022-11-16T18:38:41.592Z,8.59
2022-11-16T18:41:12.083Z,8.52
2022-11-16T18:43:54.287Z,8.32
2022-11-16T18:46:25.666Z,8.55
2022-11-16T18:48:53.571Z,8.48
2022-11-16T18:51:22.537Z,8.48
2022-11-16T18:53:50.395Z,8.26
2022-11-16T18:56:19.447Z,8.28
2022-11-16T18:58:51.878Z,8.16
2022-11-16T19:01:22.524Z,8.21
2022-11-16T19:03:50.732Z,8.38
2022-11-16T19:06:18.280Z,8.35
2022-11-16T19:08:54.994Z,8.60
2022-11-16T19:11:24.392Z,8.48
2022-11-16T19:13:59.893Z,8.21
2022-11-16T19:16:27.874Z,8.11
2022-11-16T19:18:55.191Z,8.11
2022-11-16T19:21:22.871Z,8.12
2022-11-16T19:23:53.200Z,8.14
2022-11-16T19:26:24.152Z,8.23
2022-11-16T19:28:53.158Z,8.00
2022-11-16T19:31:21.835Z,8.00
2022-11-16T19:33:53.285Z,7.92
2022-11-16T19:36:20.465Z,7.92
2022-11-16T19:38:49.124Z,7.81
2022-11-16T19:41:18.434Z,7.83
2022-11-16T19:43:45.922Z,7.84
2022-11-16T19:46:18.795Z,7.84
2022-11-16T19:48:49.988Z,7.54
2022-11-16T19:51:28.099Z,7.75
2022-11-16T19:53:55.950Z,7.80
2022-11-16T19:56:25.998Z,7.71
2022-11-16T19:58:53.370Z,7.77
2022-11-16T20:01:24.422Z,7.63
2022-11-16T20:03:52.350Z,7.78
2022-11-16T20:06:27.274Z,7.68
2022-11-16T20:08:56.932Z,7.62
2022-11-16T20:11:25.826Z,7.59
2022-11-16T20:13:55.150Z,7.60
2022-11-16T20:16:26.588Z,7.66
2022-11-16T20:18:55.461Z,7.60
2022-11-16T20:21:22.864Z,7.63
2022-11-16T20:23:52.283Z,7.49
2022-11-16T20:26:21.035Z,7.54
2022-11-16T20:28:52.884Z,7.58
2022-11-16T20:31:26.104Z,7.54
2022-11-16T20:33:59.161Z,7.53
2022-11-16T20:36:30.952Z,7.58
2022-11-16T20:38:59.910Z,7.32
2022-11-16T20:41:29.955Z,7.54
2022-11-16T20:43:59.311Z,7.66
2022-11-16T20:46:29.381Z,7.77
2022-11-16T20:48:57.806Z,7.55
2022-11-16T20:51:25.580Z,7.64
2022-11-16T20:53:53.337Z,7.66
2022-11-16T20:56:21.564Z,7.65
2022-11-16T20:58:50.247Z,7.79
2022-11-16T21:01:23.274Z,7.75
2022-11-16T21:03:50.496Z,7.53
2022-11-16T21:06:17.688Z,7.64
2022-11-16T21:08:45.098Z,7.69
2022-11-16T21:11:17.580Z,7.59
2022-11-16T21:14:07.206Z,7.66
2022-11-16T21:16:35.122Z,7.69
2022-11-16T21:19:03.096Z,7.71
2022-11-16T21:21:30.899Z,7.80
2022-11-16T21:23:58.720Z,7.79
2022-11-16T21:26:28.182Z,7.63
2022-11-16T21:28:56.766Z,7.88
2022-11-16T21:31:27.546Z,7.67
2022-11-16T21:33:55.061Z,7.61
2022-11-16T21:36:24.607Z,7.61
2022-11-16T21:38:52.787Z,7.54
2022-11-16T21:41:22.090Z,7.50
2022-11-16T21:43:50.028Z,7.55
2022-11-16T21:46:22.988Z,7.60
2022-11-16T21:48:51.421Z,7.48
2022-11-16T21:51:21.036Z,7.38
2022-11-16T21:53:49.002Z,7.39
2022-11-16T21:56:18.611Z,7.29
2022-11-16T21:58:46.783Z,7.40
2022-11-16T22:01:16.427Z,7.44
2022-11-16T22:03:45.173Z,7.46
2022-11-16T22:06:33.327Z,7.27
2022-11-16T22:09:01.144Z,7.37
2022-11-16T22:11:28.451Z,7.31
2022-11-16T22:13:55.864Z,7.25
2022-11-16T22:16:23.753Z,7.24
2022-11-16T22:18:51.221Z,7.18
2022-11-16T22:21:18.736Z,7.23
2022-11-16T22:23:45.987Z,7.24
2022-11-16T22:26:16.051Z,7.29
2022-11-16T22:28:43.262Z,7.22
2022-11-16T22:31:13.242Z,7.13
2022-11-16T22:33:41.259Z,7.14
2022-11-16T22:36:10.596Z,7.21
2022-11-16T22:38:38.059Z,7.11
2022-11-16T22:41:05.973Z,7.08
2022-11-16T22:43:33.837Z,7.05
2022-11-16T22:46:04.899Z,7.11
2022-11-16T22:48:37.773Z,7.18
2022-11-16T22:51:07.865Z,7.26
2022-11-16T22:53:35.520Z,7.20
2022-11-16T22:56:08.995Z,7.01
2022-11-16T22:58:37.536Z,6.87
2022-11-16T23:01:06.485Z,6.94
2022-11-16T23:03:34.857Z,7.00
2022-11-16T23:06:02.737Z,6.90
2022-11-16T23:08:30.034Z,6.97
2022-11-16T23:11:27.380Z,6.96
2022-11-16T23:14:13.745Z,6.77
2022-11-16T23:16:41.955Z,6.72
2022-11-16T23:19:29.080Z,6.82
2022-11-16T23:22:15.571Z,6.66
2022-11-16T23:25:01.785Z,6.69
2022-11-16T23:27:51.707Z,6.64
2022-11-16T23:30:19.123Z,6.72
2022-11-16T23:32:46.526Z,6.59
2022-11-16T23:35:14.093Z,6.63
2022-11-16T23:38:01.870Z,6.64
2022-11-16T23:40:35.015Z,6.60
2022-11-16T23:43:20.694Z,6.60
2022-11-16T23:45:48.214Z,6.53
2022-11-16T23:48:17.372Z,6.57
2022-11-16T23:50:46.187Z,6.41
2022-11-16T23:53:13.647Z,6.47
2022-11-16T23:55:41.221Z,6.50
2022-11-16T23:58:14.272Z,6.46
